Time,TemperatureF,DewpointF,PressureIn,WindDirection,WindDirectionDegrees,WindSpeedMPH,WindSpeedGustMPH,Humidity,HourlyPrecipIn,Conditions,Clouds,dailyrainin,SoftwareType,DateUTC
2013-03-06 00:00:00,31.1,24.4,27.79,ENE,68,3.4,3.4,76,0.00,,---,0.00,VWS V14.01,2013-03-06 05:00:00,
2013-03-06 00:01:00,31.1,24.4,27.79,WSW,248,0.9,1.1,76,0.00,,---,0.00,VWS V14.01,2013-03-06 05:01:00,
2013-03-06 00:06:00,31.1,24.4,27.79,SE,135,4.3,4.3,76,0.00,,---,0.00,VWS V14.01,2013-03-06 05:06:00,
2013-03-06 00:11:00,31.1,24.1,27.79,ESE,112,2.9,2.9,75,0.00,,---,0.00,VWS V14.01,2013-03-06 05:11:00,
2013-03-06 00:16:00,30.7,24.1,27.79,NE,45,5.8,6.5,76,0.00,,---,0.00,VWS V14.01,2013-03-06 05:16:00,
2013-03-06 00:21:00,30.4,24.4,27.79,NW,315,3.8,5.4,78,0.00,,---,0.00,VWS V14.01,2013-03-06 05:21:00,
2013-03-06 00:26:00,29.5,26.6,27.79,ENE,68,4.0,4.0,89,0.00,,---,0.00,VWS V14.01,2013-03-06 05:26:00,
2013-03-06 00:31:00,28.9,26.6,27.79,SSE,158,3.1,3.4,91,0.00,,---,0.00,VWS V14.01,2013-03-06 05:31:00,
2013-03-06 00:36:00,28.4,26.1,27.79,East,90,4.5,4.5,91,0.00,,---,0.00,VWS V14.01,2013-03-06 05:36:00,
2013-03-06 00:41:00,28.4,25.0,27.79,NE,45,2.2,2.2,87,0.00,,---,0.00,VWS V14.01,2013-03-06 05:41:00,
2013-03-06 00:47:00,28.4,24.5,27.79,SE,135,1.6,3.4,85,0.00,,---,0.00,VWS V14.01,2013-03-06 05:47:00,
2013-03-06 00:52:00,28.6,22.9,27.79,SE,135,2.9,5.6,79,0.00,,---,0.00,VWS V14.01,2013-03-06 05:52:00,
2013-03-06 00:57:00,28.4,21.5,27.79,SSE,158,3.1,3.1,75,0.00,,---,0.00,VWS V14.01,2013-03-06 05:57:00,
2013-03-06 01:02:00,28.4,19.9,27.79,WSW,248,3.1,5.8,70,0.00,,---,0.00,VWS V14.01,2013-03-06 06:02:00,
2013-03-06 01:07:00,28.2,19.0,27.79,NNW,338,2.5,4.9,68,0.00,,---,0.00,VWS V14.01,2013-03-06 06:07:00,
2013-03-06 01:12:00,28.0,18.5,27.79,NW,315,3.6,3.8,67,0.00,,---,0.00,VWS V14.01,2013-03-06 06:12:00,
2013-03-06 01:17:00,28.0,17.8,27.79,NNE,22,2.7,3.8,65,0.00,,---,0.00,VWS V14.01,2013-03-06 06:17:00,
2013-03-06 01:22:00,28.0,17.5,27.82,NNW,338,3.8,4.3,64,0.00,,---,0.00,VWS V14.01,2013-03-06 06:22:00,
2013-03-06 01:27:00,27.9,16.9,27.82,NNE,22,4.0,4.0,63,0.00,,---,0.00,VWS V14.01,2013-03-06 06:27:00,
2013-03-06 01:32:00,27.9,16.9,27.82,ENE,68,4.9,6.3,63,0.00,,---,0.00,VWS V14.01,2013-03-06 06:32:00,
2013-03-06 01:37:00,27.9,16.5,27.79,NE,45,2.0,2.5,62,0.00,,---,0.00,VWS V14.01,2013-03-06 06:37:00,
2013-03-06 01:42:00,27.9,15.8,27.79,SSW,202,2.9,5.8,60,0.00,,---,0.00,VWS V14.01,2013-03-06 06:42:00,
2013-03-06 01:47:00,27.9,15.8,27.79,NE,45,4.9,4.9,60,0.00,,---,0.00,VWS V14.01,2013-03-06 06:47:00,
2013-03-06 01:52:00,27.9,15.8,27.79,NE,45,5.8,5.8,60,0.00,,---,0.00,VWS V14.01,2013-03-06 06:52:00,
2013-03-06 01:57:00,27.7,15.6,27.79,NNW,338,3.4,3.4,60,0.00,,---,0.00,VWS V14.01,2013-03-06 06:57:00,
2013-03-06 02:02:00,27.5,15.1,27.79,East,90,3.8,3.8,59,0.00,,---,0.00,VWS V14.01,2013-03-06 07:02:00,
2013-03-06 02:07:00,27.3,15.3,27.79,North,0,2.5,3.8,60,0.00,,---,0.00,VWS V14.01,2013-03-06 07:07:00,
2013-03-06 02:13:00,27.1,15.1,27.79,NE,45,3.8,3.8,60,0.00,,---,0.00,VWS V14.01,2013-03-06 07:13:00,
2013-03-06 02:18:00,27.1,15.1,27.79,East,90,2.7,5.8,60,0.00,,---,0.00,VWS V14.01,2013-03-06 07:18:00,
2013-03-06 02:23:00,27.0,14.9,27.79,NNE,22,3.6,4.7,60,0.00,,---,0.00,VWS V14.01,2013-03-06 07:23:00,
2013-03-06 02:28:00,27.0,15.3,27.79,NE,45,2.0,2.5,61,0.00,,---,0.00,VWS V14.01,2013-03-06 07:28:00,
2013-03-06 02:33:00,27.0,15.3,27.79,North,0,4.0,5.8,61,0.00,,---,0.00,VWS V14.01,2013-03-06 07:33:00,
2013-03-06 02:38:00,26.8,15.5,27.79,WNW,292,3.4,3.6,62,0.00,,---,0.00,VWS V14.01,2013-03-06 07:38:00,
2013-03-06 02:43:00,26.8,15.5,27.79,ESE,112,2.9,3.8,62,0.00,,---,0.00,VWS V14.01,2013-03-06 07:43:00,
2013-03-06 02:48:00,26.6,15.7,27.79,East,90,2.7,3.4,63,0.00,,---,0.00,VWS V14.01,2013-03-06 07:48:00,
2013-03-06 02:53:00,26.6,16.1,27.79,WSW,248,1.3,3.4,64,0.00,,---,0.00,VWS V14.01,2013-03-06 07:53:00,
2013-03-06 02:58:00,26.6,15.7,27.79,South,180,6.5,6.5,63,0.00,,---,0.00,VWS V14.01,2013-03-06 07:58:00,
2013-03-06 03:03:00,26.6,16.1,27.79,SSE,158,2.7,5.4,64,0.00,,---,0.00,VWS V14.01,2013-03-06 08:03:00,
2013-03-06 03:08:00,26.6,16.1,27.79,WSW,248,2.2,3.4,64,0.00,,---,0.00,VWS V14.01,2013-03-06 08:08:00,
2013-03-06 03:13:00,26.8,16.2,27.79,WSW,248,2.7,3.4,64,0.00,,---,0.00,VWS V14.01,2013-03-06 08:13:00,
2013-03-06 03:18:00,26.8,16.6,27.79,WSW,248,3.4,3.8,65,0.00,,---,0.00,VWS V14.01,2013-03-06 08:18:00,
2013-03-06 03:23:00,26.8,16.2,27.79,NE,45,4.7,4.7,64,0.00,,---,0.00,VWS V14.01,2013-03-06 08:23:00,
2013-03-06 03:28:00,26.8,16.2,27.79,WNW,292,4.0,5.8,64,0.00,,---,0.00,VWS V14.01,2013-03-06 08:28:00,
2013-03-06 03:33:00,27.0,16.1,27.79,NNW,338,2.2,2.7,63,0.00,,---,0.00,VWS V14.01,2013-03-06 08:33:00,
2013-03-06 03:38:00,27.0,16.1,27.79,SE,135,0.9,1.1,63,0.00,,---,0.00,VWS V14.01,2013-03-06 08:38:00,
2013-03-06 03:43:00,27.0,16.1,27.79,WSW,248,2.9,2.9,63,0.00,,---,0.00,VWS V14.01,2013-03-06 08:43:00,
2013-03-06 03:48:00,27.0,16.4,27.79,ESE,112,2.0,2.5,64,0.00,,---,0.00,VWS V14.01,2013-03-06 08:48:00,
2013-03-06 03:53:00,27.0,16.4,27.79,North,0,2.0,2.0,64,0.00,,---,0.00,VWS V14.01,2013-03-06 08:53:00,
2013-03-06 03:58:00,27.0,16.4,27.79,ESE,112,2.5,2.5,64,0.00,,---,0.00,VWS V14.01,2013-03-06 08:58:00,
2013-03-06 04:03:00,27.0,16.4,27.79,NNW,338,2.0,4.7,64,0.00,,---,0.00,VWS V14.01,2013-03-06 09:03:00,
2013-03-06 04:08:00,27.1,16.6,27.79,NNW,338,2.7,4.7,64,0.00,,---,0.00,VWS V14.01,2013-03-06 09:08:00,
2013-03-06 04:13:00,27.1,17.0,27.79,North,0,4.0,4.0,65,0.00,,---,0.00,VWS V14.01,2013-03-06 09:13:00,
2013-03-06 04:19:00,27.1,17.0,27.79,WNW,292,0.0,1.1,65,0.00,,---,0.00,VWS V14.01,2013-03-06 09:19:00,
2013-03-06 04:24:00,27.1,17.3,27.79,ESE,112,4.0,4.0,66,0.00,,---,0.00,VWS V14.01,2013-03-06 09:24:00,
2013-03-06 04:29:00,27.1,17.3,27.79,NNW,338,3.4,3.4,66,0.00,,---,0.00,VWS V14.01,2013-03-06 09:29:00,
2013-03-06 04:34:00,27.1,17.6,27.79,ENE,68,2.9,2.9,67,0.00,,---,0.00,VWS V14.01,2013-03-06 09:34:00,
2013-03-06 04:39:00,27.1,17.6,27.79,NE,45,1.3,2.9,67,0.00,,---,0.00,VWS V14.01,2013-03-06 09:39:00,
2013-03-06 04:44:00,27.1,17.6,27.79,SW,225,4.0,7.8,67,0.00,,---,0.00,VWS V14.01,2013-03-06 09:44:00,
2013-03-06 04:49:00,27.1,18.0,27.79,SE,135,0.9,3.6,68,0.00,,---,0.00,VWS V14.01,2013-03-06 09:49:00,
2013-03-06 04:54:00,27.3,17.8,27.79,ENE,68,4.7,4.7,67,0.00,,---,0.00,VWS V14.01,2013-03-06 09:54:00,
2013-03-06 04:59:00,27.3,18.2,27.79,East,90,2.2,2.5,68,0.00,,---,0.00,VWS V14.01,2013-03-06 09:59:00,
2013-03-06 05:04:00,27.3,18.5,27.79,WSW,248,1.3,3.4,69,0.00,,---,0.00,VWS V14.01,2013-03-06 10:04:00,
2013-03-06 05:09:00,27.3,18.5,27.82,SE,135,2.7,2.7,69,0.00,,---,0.00,VWS V14.01,2013-03-06 10:09:00,
2013-03-06 05:14:00,27.3,18.8,27.82,ESE,112,2.0,2.0,70,0.00,,---,0.00,VWS V14.01,2013-03-06 10:14:00,
2013-03-06 05:20:00,27.3,19.2,27.82,SW,225,3.6,3.6,71,0.00,,---,0.00,VWS V14.01,2013-03-06 10:20:00,
2013-03-06 05:25:00,27.5,19.4,27.82,WSW,248,2.7,4.0,71,0.00,,---,0.00,VWS V14.01,2013-03-06 10:25:00,
2013-03-06 05:30:00,27.5,19.4,27.82,SE,135,1.1,1.1,71,0.00,,---,0.00,VWS V14.01,2013-03-06 10:30:00,
2013-03-06 05:35:00,27.5,19.7,27.82,WNW,292,2.9,2.9,72,0.00,,---,0.00,VWS V14.01,2013-03-06 10:35:00,
2013-03-06 05:40:00,27.5,19.7,27.82,WSW,248,0.0,2.9,72,0.00,,---,0.00,VWS V14.01,2013-03-06 10:40:00,
2013-03-06 05:45:00,27.5,19.4,27.82,East,90,1.1,2.5,71,0.00,,---,0.00,VWS V14.01,2013-03-06 10:45:00,
2013-03-06 05:50:00,27.5,19.7,27.82,WNW,292,3.4,3.4,72,0.00,,---,0.00,VWS V14.01,2013-03-06 10:50:00,
2013-03-06 05:55:00,27.5,19.7,27.82,North,0,1.3,1.3,72,0.00,,---,0.00,VWS V14.01,2013-03-06 10:55:00,
2013-03-06 06:00:00,27.5,20.0,27.82,NE,45,6.3,6.3,73,0.00,,---,0.00,VWS V14.01,2013-03-06 11:00:00,
2013-03-06 06:05:00,27.5,19.7,27.82,West,270,3.1,3.1,72,0.00,,---,0.00,VWS V14.01,2013-03-06 11:05:00,
2013-03-06 06:10:00,27.5,19.7,27.82,SE,135,4.3,4.3,72,0.00,,---,0.00,VWS V14.01,2013-03-06 11:10:00,
2013-03-06 06:16:00,27.5,19.7,27.82,SSE,158,2.0,2.5,72,0.00,,---,0.00,VWS V14.01,2013-03-06 11:16:00,
2013-03-06 06:21:00,27.5,20.0,27.82,SE,135,2.0,2.2,73,0.00,,---,0.00,VWS V14.01,2013-03-06 11:21:00,
2013-03-06 06:25:00,27.5,20.3,27.85,WNW,292,2.7,3.1,74,0.00,,---,0.00,VWS V14.01,2013-03-06 11:25:00,
2013-03-06 06:30:00,27.5,20.3,27.85,SE,135,2.5,2.5,74,0.00,,---,0.00,VWS V14.01,2013-03-06 11:30:00,
2013-03-06 06:36:00,27.7,20.5,27.85,NE,45,0.9,0.9,74,0.00,,---,0.00,VWS V14.01,2013-03-06 11:36:00,
2013-03-06 06:41:00,27.7,20.5,27.85,SSE,158,4.3,4.7,74,0.00,,---,0.00,VWS V14.01,2013-03-06 11:41:00,
2013-03-06 06:46:00,27.7,20.2,27.85,South,180,0.0,2.2,73,0.00,,---,0.00,VWS V14.01,2013-03-06 11:46:00,
2013-03-06 06:51:00,27.7,19.9,27.85,West,270,3.4,4.9,72,0.00,,---,0.00,VWS V14.01,2013-03-06 11:51:00,
2013-03-06 06:56:00,27.7,19.9,27.85,NNE,22,2.5,3.8,72,0.00,,---,0.00,VWS V14.01,2013-03-06 11:56:00,
2013-03-06 07:01:00,27.7,19.9,27.85,SSW,202,2.9,4.0,72,0.00,,---,0.00,VWS V14.01,2013-03-06 12:01:00,
2013-03-06 07:06:00,27.7,20.2,27.85,ESE,112,0.0,1.1,73,0.00,,---,0.00,VWS V14.01,2013-03-06 12:06:00,
2013-03-06 07:11:00,27.7,20.5,27.88,WSW,248,4.3,4.3,74,0.00,,---,0.00,VWS V14.01,2013-03-06 12:11:00,
2013-03-06 07:16:00,27.7,20.2,27.88,SW,225,2.7,3.4,73,0.00,,---,0.00,VWS V14.01,2013-03-06 12:16:00,
2013-03-06 07:21:00,27.7,20.2,27.88,SSW,202,4.0,4.0,73,0.00,,---,0.00,VWS V14.01,2013-03-06 12:21:00,
2013-03-06 07:26:00,27.7,20.2,27.88,SSE,158,1.3,1.3,73,0.00,,---,0.00,VWS V14.01,2013-03-06 12:26:00,
2013-03-06 07:31:00,27.7,19.9,27.88,NNW,338,2.9,2.9,72,0.00,,---,0.00,VWS V14.01,2013-03-06 12:31:00,
2013-03-06 07:36:00,27.9,20.0,27.90,NNW,338,1.3,1.3,72,0.00,,---,0.00,VWS V14.01,2013-03-06 12:36:00,
2013-03-06 07:41:00,27.9,20.0,27.90,ESE,112,2.2,2.2,72,0.00,,---,0.00,VWS V14.01,2013-03-06 12:41:00,
2013-03-06 07:46:00,27.9,20.3,27.90,South,180,3.8,3.8,73,0.00,,---,0.00,VWS V14.01,2013-03-06 12:46:00,
2013-03-06 07:51:00,27.7,20.2,27.90,NE,45,3.6,3.6,73,0.00,,---,0.00,VWS V14.01,2013-03-06 12:51:00,
2013-03-06 07:56:00,27.7,20.8,27.90,NE,45,2.5,2.5,75,0.00,,---,0.00,VWS V14.01,2013-03-06 12:56:00,
2013-03-06 08:01:00,27.7,21.1,27.90,WSW,248,0.0,2.5,76,0.00,,---,0.00,VWS V14.01,2013-03-06 13:01:00,
2013-03-06 08:06:00,27.9,21.3,27.90,NNE,22,4.0,5.4,76,0.00,,---,0.00,VWS V14.01,2013-03-06 13:06:00,
2013-03-06 08:11:00,27.9,21.3,27.90,South,180,2.9,2.9,76,0.00,,---,0.00,VWS V14.01,2013-03-06 13:11:00,
2013-03-06 08:17:00,27.9,20.7,27.90,NE,45,4.0,4.9,74,0.00,,---,0.00,VWS V14.01,2013-03-06 13:17:00,
2013-03-06 08:22:00,28.0,20.8,27.90,ENE,68,2.5,3.1,74,0.00,,---,0.00,VWS V14.01,2013-03-06 13:22:00,
2013-03-06 08:27:00,28.2,21.0,27.90,ENE,68,2.5,2.5,74,0.00,,---,0.00,VWS V14.01,2013-03-06 13:27:00,
2013-03-06 08:32:00,28.2,21.0,27.90,NNE,22,3.8,3.8,74,0.00,,---,0.00,VWS V14.01,2013-03-06 13:32:00,
2013-03-06 08:37:00,28.4,21.2,27.93,NNE,22,2.7,3.4,74,0.00,,---,0.00,VWS V14.01,2013-03-06 13:37:00,
2013-03-06 08:42:00,28.4,21.2,27.93,East,90,2.7,2.7,74,0.00,,---,0.00,VWS V14.01,2013-03-06 13:42:00,
2013-03-06 08:47:00,28.6,21.0,27.93,East,90,2.7,2.7,73,0.00,,---,0.00,VWS V14.01,2013-03-06 13:47:00,
2013-03-06 08:52:00,28.6,21.4,27.90,NE,45,3.4,3.4,74,0.00,,---,0.00,VWS V14.01,2013-03-06 13:52:00,
2013-03-06 08:57:00,28.8,21.5,27.90,South,180,2.0,2.0,74,0.00,,---,0.00,VWS V14.01,2013-03-06 13:57:00,
2013-03-06 09:02:00,28.9,21.7,27.90,SSE,158,3.4,3.4,74,0.00,,---,0.00,VWS V14.01,2013-03-06 14:02:00,
2013-03-06 09:07:00,28.9,21.7,27.93,NNE,22,2.5,2.5,74,0.00,,---,0.00,VWS V14.01,2013-03-06 14:07:00,
2013-03-06 09:12:00,28.9,21.7,27.93,NNW,338,3.4,3.4,74,0.00,,---,0.00,VWS V14.01,2013-03-06 14:12:00,
2013-03-06 09:17:00,28.8,21.5,27.93,ESE,112,2.9,2.9,74,0.00,,---,0.00,VWS V14.01,2013-03-06 14:17:00,
2013-03-06 09:22:00,28.8,21.9,27.93,ESE,112,4.0,4.0,75,0.00,,---,0.00,VWS V14.01,2013-03-06 14:22:00,
2013-03-06 09:27:00,28.6,21.4,27.93,West,270,3.6,3.8,74,0.00,,---,0.00,VWS V14.01,2013-03-06 14:27:00,
2013-03-06 09:32:00,28.6,21.7,27.93,NE,45,1.6,1.6,75,0.00,,---,0.00,VWS V14.01,2013-03-06 14:32:00,
2013-03-06 09:37:00,28.6,21.7,27.93,NNE,22,3.4,3.4,75,0.00,,---,0.00,VWS V14.01,2013-03-06 14:37:00,
2013-03-06 09:42:00,28.8,21.9,27.93,West,270,3.8,3.8,75,0.00,,---,0.00,VWS V14.01,2013-03-06 14:42:00,
2013-03-06 09:48:00,28.9,21.7,27.93,ENE,68,2.5,2.5,74,0.00,,---,0.00,VWS V14.01,2013-03-06 14:48:00,
2013-03-06 09:53:00,28.9,21.7,27.93,NE,45,2.9,2.9,74,0.00,,---,0.00,VWS V14.01,2013-03-06 14:53:00,
2013-03-06 09:58:00,29.3,22.4,27.93,North,0,0.0,0.0,75,0.00,,---,0.00,VWS V14.01,2013-03-06 14:58:00,
2013-03-06 10:03:00,29.3,22.4,27.93,SSE,158,2.2,4.5,75,0.00,,---,0.00,VWS V14.01,2013-03-06 15:03:00,
2013-03-06 10:08:00,29.3,22.1,27.93,NNW,338,3.1,3.1,74,0.00,,---,0.00,VWS V14.01,2013-03-06 15:08:00,
2013-03-06 10:13:00,29.3,22.1,27.93,WSW,248,3.1,3.1,74,0.00,,---,0.00,VWS V14.01,2013-03-06 15:13:00,
2013-03-06 10:18:00,29.3,22.4,27.93,SW,225,3.6,3.6,75,0.00,,---,0.00,VWS V14.01,2013-03-06 15:18:00,
2013-03-06 10:23:00,29.3,22.4,27.96,SW,225,2.5,4.3,75,0.00,,---,0.00,VWS V14.01,2013-03-06 15:23:00,
2013-03-06 10:28:00,29.1,21.9,27.96,ENE,68,4.0,6.0,74,0.00,,---,0.00,VWS V14.01,2013-03-06 15:28:00,
2013-03-06 10:33:00,29.1,22.2,27.96,West,270,1.3,2.5,75,0.00,,---,0.00,VWS V14.01,2013-03-06 15:33:00,
2013-03-06 10:39:00,29.3,22.4,27.96,ESE,112,3.4,3.4,75,0.00,,---,0.00,VWS V14.01,2013-03-06 15:39:00,
2013-03-06 10:44:00,29.3,22.4,27.96,SE,135,4.3,4.3,75,0.00,,---,0.00,VWS V14.01,2013-03-06 15:44:00,
2013-03-06 10:49:00,29.3,22.1,27.96,WNW,292,1.6,2.9,74,0.00,,---,0.00,VWS V14.01,2013-03-06 15:49:00,
2013-03-06 10:54:00,29.5,22.2,27.96,NNW,338,2.7,2.7,74,0.00,,---,0.00,VWS V14.01,2013-03-06 15:54:00,
2013-03-06 10:59:00,29.8,22.6,27.96,NE,45,3.4,3.4,74,0.00,,---,0.00,VWS V14.01,2013-03-06 15:59:00,
2013-03-06 11:04:00,30.2,22.6,27.96,NNE,22,3.8,3.8,73,0.00,,---,0.00,VWS V14.01,2013-03-06 16:04:00,
2013-03-06 11:09:00,30.2,22.3,27.96,ENE,68,3.8,3.8,72,0.00,,---,0.00,VWS V14.01,2013-03-06 16:09:00,
2013-03-06 11:14:00,30.7,22.8,27.96,North,0,4.3,7.2,72,0.00,,---,0.00,VWS V14.01,2013-03-06 16:14:00,
2013-03-06 11:19:00,30.6,22.3,27.96,East,90,2.7,3.4,71,0.00,,---,0.00,VWS V14.01,2013-03-06 16:19:00,
2013-03-06 11:24:00,30.7,22.5,27.96,SSW,202,2.7,3.4,71,0.00,,---,0.00,VWS V14.01,2013-03-06 16:24:00,
2013-03-06 11:29:00,30.4,21.8,27.96,East,90,2.0,2.9,70,0.00,,---,0.00,VWS V14.01,2013-03-06 16:29:00,
2013-03-06 11:34:00,30.7,22.8,27.96,ESE,112,5.4,5.4,72,0.00,,---,0.00,VWS V14.01,2013-03-06 16:34:00,
2013-03-06 11:39:00,30.4,22.1,27.96,SSE,158,1.6,4.3,71,0.00,,---,0.00,VWS V14.01,2013-03-06 16:39:00,
2013-03-06 11:44:00,30.2,22.3,27.96,ESE,112,2.7,2.7,72,0.00,,---,0.00,VWS V14.01,2013-03-06 16:44:00,
2013-03-06 11:50:00,30.0,22.1,27.96,SSE,158,3.6,5.8,72,0.00,,---,0.00,VWS V14.01,2013-03-06 16:50:00,
2013-03-06 11:55:00,30.0,22.4,27.99,NE,45,0.9,2.2,73,0.00,,---,0.00,VWS V14.01,2013-03-06 16:55:00,
2013-03-06 12:00:00,30.2,22.6,27.99,NNE,22,1.6,1.6,73,0.00,,---,0.00,VWS V14.01,2013-03-06 17:00:00,
2013-03-06 12:05:00,30.2,22.6,27.99,South,180,0.9,1.1,73,0.00,,---,0.00,VWS V14.01,2013-03-06 17:05:00,
2013-03-06 12:10:00,30.0,22.4,27.99,East,90,3.8,3.8,73,0.00,,---,0.00,VWS V14.01,2013-03-06 17:10:00,
2013-03-06 12:15:00,30.4,22.8,27.99,NNW,338,0.0,2.5,73,0.00,,---,0.00,VWS V14.01,2013-03-06 17:15:00,
2013-03-06 12:20:00,30.4,22.8,27.99,East,90,0.9,3.1,73,0.00,,---,0.00,VWS V14.01,2013-03-06 17:20:00,
2013-03-06 12:25:00,30.4,22.8,27.99,ENE,68,0.0,0.0,73,0.00,,---,0.00,VWS V14.01,2013-03-06 17:25:00,
2013-03-06 12:30:00,31.1,23.5,27.99,SSW,202,2.0,2.2,73,0.00,,---,0.00,VWS V14.01,2013-03-06 17:30:00,
2013-03-06 12:35:00,30.9,23.0,27.99,ESE,112,2.5,2.7,72,0.00,,---,0.00,VWS V14.01,2013-03-06 17:35:00,
2013-03-06 12:40:00,31.3,23.3,27.99,SSW,202,3.4,3.4,72,0.00,,---,0.00,VWS V14.01,2013-03-06 17:40:00,
2013-03-06 12:45:00,32.2,24.2,27.99,ESE,112,2.0,3.8,72,0.00,,---,0.00,VWS V14.01,2013-03-06 17:45:00,
2013-03-06 12:50:00,32.5,24.2,27.99,SSE,158,2.9,3.6,71,0.00,,---,0.00,VWS V14.01,2013-03-06 17:50:00,
2013-03-06 12:55:00,33.3,24.9,27.99,East,90,0.9,2.7,71,0.00,,---,0.00,VWS V14.01,2013-03-06 17:55:00,
2013-03-06 13:00:00,33.1,24.4,27.99,ESE,112,0.0,2.7,70,0.00,,---,0.00,VWS V14.01,2013-03-06 18:00:00,
2013-03-06 13:05:00,33.3,24.5,27.99,SSW,202,4.3,4.3,70,0.00,,---,0.00,VWS V14.01,2013-03-06 18:05:00,
2013-03-06 13:10:00,33.4,24.4,27.99,North,0,2.9,3.1,69,0.00,,---,0.00,VWS V14.01,2013-03-06 18:10:00,
2013-03-06 13:15:00,33.6,24.5,27.99,NNE,22,2.7,2.7,69,0.00,,---,0.00,VWS V14.01,2013-03-06 18:15:00,
2013-03-06 13:21:00,33.6,24.5,27.99,NE,45,2.7,4.3,69,0.00,,---,0.00,VWS V14.01,2013-03-06 18:21:00,
2013-03-06 13:26:00,33.4,24.4,27.99,NNE,22,0.9,3.6,69,0.00,,---,0.00,VWS V14.01,2013-03-06 18:26:00,
2013-03-06 13:31:00,33.6,24.5,27.99,East,90,1.3,2.7,69,0.00,,---,0.00,VWS V14.01,2013-03-06 18:31:00,
2013-03-06 13:36:00,33.6,24.9,27.99,North,0,2.0,6.0,70,0.00,,---,0.00,VWS V14.01,2013-03-06 18:36:00,
2013-03-06 13:41:00,34.0,25.2,27.99,East,90,2.7,2.7,70,0.00,,---,0.00,VWS V14.01,2013-03-06 18:41:00,
2013-03-06 13:46:00,34.0,24.5,27.99,SSW,202,1.6,1.6,68,0.00,,---,0.00,VWS V14.01,2013-03-06 18:46:00,
2013-03-06 13:51:00,34.9,25.4,27.99,East,90,2.9,2.9,68,0.00,,---,0.00,VWS V14.01,2013-03-06 18:51:00,
2013-03-06 13:56:00,34.5,24.4,27.99,NNE,22,2.2,2.7,66,0.00,,---,0.00,VWS V14.01,2013-03-06 18:56:00,
2013-03-06 14:01:00,34.3,24.2,27.99,NNE,22,2.0,5.6,66,0.00,,---,0.00,VWS V14.01,2013-03-06 19:01:00,
2013-03-06 14:06:00,35.2,25.8,27.99,SSW,202,2.7,2.7,68,0.00,,---,0.00,VWS V14.01,2013-03-06 19:06:00,
2013-03-06 14:11:00,34.9,24.7,27.99,ENE,68,2.9,2.9,66,0.00,,---,0.00,VWS V14.01,2013-03-06 19:11:00,
2013-03-06 14:16:00,34.9,25.0,27.99,ENE,68,1.6,2.5,67,0.00,,---,0.00,VWS V14.01,2013-03-06 19:16:00,
2013-03-06 14:21:00,35.1,24.5,27.99,NE,45,0.0,2.9,65,0.00,,---,0.00,VWS V14.01,2013-03-06 19:21:00,
2013-03-06 14:27:00,34.9,25.0,27.99,WSW,248,4.0,4.0,67,0.00,,---,0.00,VWS V14.01,2013-03-06 19:27:00,
2013-03-06 14:32:00,34.7,24.5,27.99,WSW,248,4.7,4.7,66,0.00,,---,0.00,VWS V14.01,2013-03-06 19:32:00,
2013-03-06 14:37:00,34.9,24.7,27.99,NW,315,1.3,1.3,66,0.00,,---,0.00,VWS V14.01,2013-03-06 19:37:00,
2013-03-06 14:42:00,34.7,24.1,28.02,ESE,112,1.6,1.6,65,0.00,,---,0.00,VWS V14.01,2013-03-06 19:42:00,
2013-03-06 14:47:00,34.9,24.3,28.02,South,180,2.2,2.7,65,0.00,,---,0.00,VWS V14.01,2013-03-06 19:47:00,
2013-03-06 14:52:00,34.9,24.0,28.02,WSW,248,1.6,1.6,64,0.00,,---,0.00,VWS V14.01,2013-03-06 19:52:00,
2013-03-06 14:57:00,36.1,25.1,28.02,NNE,22,3.8,3.8,64,0.00,,---,0.00,VWS V14.01,2013-03-06 19:57:00,
2013-03-06 15:02:00,35.8,23.7,28.02,NE,45,2.5,3.4,61,0.00,,---,0.00,VWS V14.01,2013-03-06 20:02:00,
2013-03-06 15:07:00,35.6,23.5,28.02,SW,225,2.0,2.0,61,0.00,,---,0.00,VWS V14.01,2013-03-06 20:07:00,
2013-03-06 15:12:00,35.6,23.5,28.02,East,90,0.0,2.5,61,0.00,,---,0.00,VWS V14.01,2013-03-06 20:12:00,
2013-03-06 15:17:00,36.1,24.4,28.02,ESE,112,2.0,2.7,62,0.00,,---,0.00,VWS V14.01,2013-03-06 20:17:00,
2013-03-06 15:22:00,35.8,23.7,28.02,NE,45,2.7,2.7,61,0.00,,---,0.00,VWS V14.01,2013-03-06 20:22:00,
2013-03-06 15:27:00,35.2,22.8,28.02,NNE,22,1.6,2.7,60,0.00,,---,0.00,VWS V14.01,2013-03-06 20:27:00,
2013-03-06 15:32:00,34.7,22.2,28.02,NE,45,3.1,3.1,60,0.00,,---,0.00,VWS V14.01,2013-03-06 20:32:00,
2013-03-06 15:37:00,34.7,22.2,28.02,NE,45,1.6,1.6,60,0.00,,---,0.00,VWS V14.01,2013-03-06 20:37:00,
2013-03-06 15:42:00,34.5,22.5,28.02,WNW,292,1.6,2.2,61,0.00,,---,0.00,VWS V14.01,2013-03-06 20:42:00,
2013-03-06 15:48:00,34.5,22.9,28.02,SSW,202,0.9,1.6,62,0.00,,---,0.00,VWS V14.01,2013-03-06 20:48:00,
2013-03-06 15:53:00,35.6,23.9,28.02,East,90,2.9,2.9,62,0.00,,---,0.00,VWS V14.01,2013-03-06 20:53:00,
2013-03-06 15:58:00,35.4,23.3,28.02,SE,135,2.5,3.4,61,0.00,,---,0.00,VWS V14.01,2013-03-06 20:58:00,
2013-03-06 16:03:00,36.7,24.1,28.02,East,90,1.6,1.6,60,0.00,,---,0.00,VWS V14.01,2013-03-06 21:03:00,
2013-03-06 16:08:00,36.7,24.1,28.02,ESE,112,3.4,3.4,60,0.00,,---,0.00,VWS V14.01,2013-03-06 21:08:00,
2013-03-06 16:13:00,37.6,23.7,28.02,WSW,248,2.0,3.1,57,0.00,,---,0.00,VWS V14.01,2013-03-06 21:13:00,
2013-03-06 16:18:00,37.0,23.2,28.02,ENE,68,1.1,1.1,57,0.00,,---,0.00,VWS V14.01,2013-03-06 21:18:00,
2013-03-06 16:23:00,36.7,22.9,28.02,NE,45,2.5,2.5,57,0.00,,---,0.00,VWS V14.01,2013-03-06 21:23:00,
2013-03-06 16:28:00,36.3,22.6,28.02,ENE,68,2.7,2.7,57,0.00,,---,0.00,VWS V14.01,2013-03-06 21:28:00,
2013-03-06 16:33:00,36.7,23.3,28.02,NE,45,2.7,2.7,58,0.00,,---,0.00,VWS V14.01,2013-03-06 21:33:00,
2013-03-06 16:38:00,37.6,23.7,28.02,SE,135,2.9,2.9,57,0.00,,---,0.00,VWS V14.01,2013-03-06 21:38:00,
2013-03-06 16:43:00,36.9,22.6,28.02,NNE,22,2.9,3.1,56,0.00,,---,0.00,VWS V14.01,2013-03-06 21:43:00,
2013-03-06 16:48:00,36.5,22.3,28.02,SW,225,3.4,3.4,56,0.00,,---,0.00,VWS V14.01,2013-03-06 21:48:00,
2013-03-06 16:53:00,36.5,22.3,28.05,North,0,2.0,2.0,56,0.00,,---,0.00,VWS V14.01,2013-03-06 21:53:00,
2013-03-06 16:58:00,36.0,22.2,28.05,ENE,68,1.1,1.1,57,0.00,,---,0.00,VWS V14.01,2013-03-06 21:58:00,
2013-03-06 17:04:00,35.2,22.0,28.05,NE,45,2.9,2.9,58,0.00,,---,0.00,VWS V14.01,2013-03-06 22:04:00,
2013-03-06 17:09:00,35.1,21.8,28.05,WNW,292,0.0,2.9,58,0.00,,---,0.00,VWS V14.01,2013-03-06 22:09:00,
2013-03-06 17:14:00,34.9,22.0,28.05,NNE,22,0.0,2.0,59,0.00,,---,0.00,VWS V14.01,2013-03-06 22:14:00,
2013-03-06 17:19:00,35.1,22.6,28.05,East,90,2.5,4.3,60,0.00,,---,0.00,VWS V14.01,2013-03-06 22:19:00,
2013-03-06 17:24:00,34.9,22.4,28.05,ENE,68,2.7,2.7,60,0.00,,---,0.00,VWS V14.01,2013-03-06 22:24:00,
2013-03-06 17:29:00,34.5,22.1,28.05,WSW,248,2.7,2.7,60,0.00,,---,0.00,VWS V14.01,2013-03-06 22:29:00,
2013-03-06 17:34:00,34.2,21.7,28.05,West,270,2.9,3.1,60,0.00,,---,0.00,VWS V14.01,2013-03-06 22:34:00,
2013-03-06 17:39:00,34.0,22.0,28.05,NE,45,2.0,2.9,61,0.00,,---,0.00,VWS V14.01,2013-03-06 22:39:00,
2013-03-06 17:44:00,33.8,22.2,28.05,SSW,202,1.6,2.9,62,0.00,,---,0.00,VWS V14.01,2013-03-06 22:44:00,
2013-03-06 17:49:00,33.6,22.4,28.05,NNE,22,2.5,2.9,63,0.00,,---,0.00,VWS V14.01,2013-03-06 22:49:00,
2013-03-06 17:54:00,33.3,22.4,28.05,East,90,2.7,2.7,64,0.00,,---,0.00,VWS V14.01,2013-03-06 22:54:00,
2013-03-06 17:59:00,33.3,22.4,28.05,SSE,158,2.0,2.9,64,0.00,,---,0.00,VWS V14.01,2013-03-06 22:59:00,
2013-03-06 18:04:00,33.1,22.2,28.05,ESE,112,1.6,2.9,64,0.00,,---,0.00,VWS V14.01,2013-03-06 23:04:00,
2013-03-06 18:09:00,32.9,22.1,28.05,East,90,0.0,1.3,64,0.00,,---,0.00,VWS V14.01,2013-03-06 23:09:00,
2013-03-06 18:14:00,32.7,22.3,28.05,East,90,2.7,2.9,65,0.00,,---,0.00,VWS V14.01,2013-03-06 23:14:00,
2013-03-06 18:19:00,32.7,22.6,28.05,SSE,158,2.2,2.5,66,0.00,,---,0.00,VWS V14.01,2013-03-06 23:19:00,
2013-03-06 18:24:00,32.4,22.3,28.05,NE,45,1.1,2.9,66,0.00,,---,0.00,VWS V14.01,2013-03-06 23:24:00,
2013-03-06 18:29:00,32.2,22.1,28.05,NW,315,2.5,2.9,66,0.00,,---,0.00,VWS V14.01,2013-03-06 23:29:00,
2013-03-06 18:34:00,32.0,21.9,28.05,WSW,248,2.5,3.1,66,0.00,,---,0.00,VWS V14.01,2013-03-06 23:34:00,
2013-03-06 18:39:00,31.8,22.1,28.05,ENE,68,2.7,2.7,67,0.00,,---,0.00,VWS V14.01,2013-03-06 23:39:00,
2013-03-06 18:44:00,31.6,22.3,28.05,East,90,0.9,2.9,68,0.00,,---,0.00,VWS V14.01,2013-03-06 23:44:00,
2013-03-06 18:50:00,31.5,22.1,28.05,NE,45,2.5,2.7,68,0.00,,---,0.00,VWS V14.01,2013-03-06 23:50:00,
2013-03-06 18:55:00,31.3,22.0,28.05,SSW,202,1.1,2.9,68,0.00,,---,0.00,VWS V14.01,2013-03-06 23:55:00,
2013-03-06 19:00:00,31.1,21.4,28.05,ENE,68,2.7,3.8,67,0.00,,---,0.00,VWS V14.01,2013-03-07 00:00:00,
2013-03-06 19:05:00,31.1,21.4,28.05,SSE,158,0.9,1.1,67,0.00,,---,0.00,VWS V14.01,2013-03-07 00:05:00,
2013-03-06 19:10:00,30.9,21.3,28.05,NNE,22,0.0,0.9,67,0.00,,---,0.00,VWS V14.01,2013-03-07 00:10:00,
2013-03-06 19:15:00,30.9,21.3,28.05,SSE,158,1.6,3.4,67,0.00,,---,0.00,VWS V14.01,2013-03-07 00:15:00,
2013-03-06 19:20:00,30.9,21.3,28.05,East,90,0.0,2.7,67,0.00,,---,0.00,VWS V14.01,2013-03-07 00:20:00,
2013-03-06 19:25:00,30.7,21.1,28.05,East,90,1.6,1.6,67,0.00,,---,0.00,VWS V14.01,2013-03-07 00:25:00,
2013-03-06 19:30:00,30.7,21.4,28.05,ENE,68,3.1,3.1,68,0.00,,---,0.00,VWS V14.01,2013-03-07 00:30:00,
2013-03-06 19:35:00,30.6,21.3,28.05,NE,45,1.1,2.7,68,0.00,,---,0.00,VWS V14.01,2013-03-07 00:35:00,
2013-03-06 19:40:00,30.4,21.1,28.05,East,90,1.3,2.5,68,0.00,,---,0.00,VWS V14.01,2013-03-07 00:40:00,
2013-03-06 19:45:00,30.4,21.1,28.05,ESE,112,0.0,0.0,68,0.00,,---,0.00,VWS V14.01,2013-03-07 00:45:00,
2013-03-06 19:50:00,30.4,21.4,28.05,West,270,0.0,0.0,69,0.00,,---,0.00,VWS V14.01,2013-03-07 00:50:00,
2013-03-06 19:55:00,30.4,21.8,28.05,ENE,68,1.1,1.1,70,0.00,,---,0.00,VWS V14.01,2013-03-07 00:55:00,
2013-03-06 20:00:00,30.4,21.8,28.05,WNW,292,0.9,0.9,70,0.00,,---,0.00,VWS V14.01,2013-03-07 01:00:00,
2013-03-06 20:05:00,30.4,21.8,28.05,SE,135,1.3,1.3,70,0.00,,---,0.00,VWS V14.01,2013-03-07 01:05:00,
2013-03-06 20:10:00,30.4,22.1,28.08,SW,225,1.6,1.6,71,0.00,,---,0.00,VWS V14.01,2013-03-07 01:10:00,
2013-03-06 20:15:00,30.4,22.1,28.08,NNE,22,1.3,1.3,71,0.00,,---,0.00,VWS V14.01,2013-03-07 01:15:00,
2013-03-06 20:21:00,30.2,22.3,28.08,SSE,158,2.7,2.7,72,0.00,,---,0.00,VWS V14.01,2013-03-07 01:21:00,
2013-03-06 20:26:00,30.0,21.8,28.05,East,90,1.3,1.3,71,0.00,,---,0.00,VWS V14.01,2013-03-07 01:26:00,
2013-03-06 20:31:00,30.0,21.4,28.05,ESE,112,0.9,2.2,70,0.00,,---,0.00,VWS V14.01,2013-03-07 01:31:00,
2013-03-06 20:36:00,30.0,21.8,28.05,East,90,1.3,1.3,71,0.00,,---,0.00,VWS V14.01,2013-03-07 01:36:00,
2013-03-06 20:41:00,30.0,21.8,28.08,ENE,68,2.7,2.7,71,0.00,,---,0.00,VWS V14.01,2013-03-07 01:41:00,
2013-03-06 20:46:00,29.8,21.6,28.08,North,0,2.7,2.7,71,0.00,,---,0.00,VWS V14.01,2013-03-07 01:46:00,
2013-03-06 20:51:00,29.8,21.6,28.08,WNW,292,1.1,1.1,71,0.00,,---,0.00,VWS V14.01,2013-03-07 01:51:00,
2013-03-06 20:56:00,30.0,21.8,28.08,SW,225,2.5,2.5,71,0.00,,---,0.00,VWS V14.01,2013-03-07 01:56:00,
2013-03-06 21:01:00,30.0,22.1,28.08,SSE,158,2.7,2.7,72,0.00,,---,0.00,VWS V14.01,2013-03-07 02:01:00,
2013-03-06 21:06:00,30.0,22.1,28.08,ESE,112,0.0,0.0,72,0.00,,---,0.00,VWS V14.01,2013-03-07 02:06:00,
2013-03-06 21:11:00,29.8,21.9,28.05,NE,45,1.3,1.3,72,0.00,,---,0.00,VWS V14.01,2013-03-07 02:11:00,
2013-03-06 21:16:00,30.0,22.1,28.05,East,90,0.0,0.0,72,0.00,,---,0.00,VWS V14.01,2013-03-07 02:16:00,
2013-03-06 21:21:00,29.8,21.9,28.08,SE,135,0.0,0.9,72,0.00,,---,0.00,VWS V14.01,2013-03-07 02:21:00,
2013-03-06 21:26:00,29.8,21.9,28.08,East,90,2.7,2.7,72,0.00,,---,0.00,VWS V14.01,2013-03-07 02:26:00,
2013-03-06 21:31:00,29.8,21.9,28.08,NNE,22,1.3,2.7,72,0.00,,---,0.00,VWS V14.01,2013-03-07 02:31:00,
2013-03-06 21:36:00,29.7,21.8,28.08,NNE,22,1.3,1.3,72,0.00,,---,0.00,VWS V14.01,2013-03-07 02:36:00,
2013-03-06 21:41:00,29.7,21.8,28.08,ESE,112,2.0,2.0,72,0.00,,---,0.00,VWS V14.01,2013-03-07 02:41:00,
2013-03-06 21:47:00,29.7,22.1,28.08,NW,315,0.9,1.1,73,0.00,,---,0.00,VWS V14.01,2013-03-07 02:47:00,
2013-03-06 21:52:00,29.7,22.1,28.08,SE,135,2.5,2.5,73,0.00,,---,0.00,VWS V14.01,2013-03-07 02:52:00,
2013-03-06 21:57:00,29.5,21.9,28.08,East,90,0.9,2.9,73,0.00,,---,0.00,VWS V14.01,2013-03-07 02:57:00,
2013-03-06 22:02:00,29.7,22.4,28.08,ESE,112,0.0,0.0,74,0.00,,---,0.00,VWS V14.01,2013-03-07 03:02:00,
2013-03-06 22:07:00,29.5,21.9,28.08,North,0,0.0,0.0,73,0.00,,---,0.00,VWS V14.01,2013-03-07 03:07:00,
2013-03-06 22:12:00,29.5,21.9,28.08,SSW,202,0.0,0.0,73,0.00,,---,0.00,VWS V14.01,2013-03-07 03:12:00,
2013-03-06 22:17:00,29.5,22.2,28.08,East,90,0.0,2.7,74,0.00,,---,0.00,VWS V14.01,2013-03-07 03:17:00,
2013-03-06 22:22:00,29.5,22.2,28.05,SW,225,1.6,1.6,74,0.00,,---,0.00,VWS V14.01,2013-03-07 03:22:00,
2013-03-06 22:27:00,29.5,22.2,28.05,SSW,202,0.9,0.9,74,0.00,,---,0.00,VWS V14.01,2013-03-07 03:27:00,
2013-03-06 22:32:00,29.5,22.2,28.05,WNW,292,1.6,2.5,74,0.00,,---,0.00,VWS V14.01,2013-03-07 03:32:00,
2013-03-06 22:37:00,29.5,22.2,28.05,WNW,292,2.5,2.5,74,0.00,,---,0.00,VWS V14.01,2013-03-07 03:37:00,
2013-03-06 22:42:00,29.3,22.1,28.05,SW,225,2.5,2.5,74,0.00,,---,0.00,VWS V14.01,2013-03-07 03:42:00,
2013-03-06 22:47:00,29.3,21.7,28.05,East,90,0.0,0.0,73,0.00,,---,0.00,VWS V14.01,2013-03-07 03:47:00,
2013-03-06 22:52:00,29.1,21.6,28.05,ENE,68,0.0,0.0,73,0.00,,---,0.00,VWS V14.01,2013-03-07 03:52:00,
2013-03-06 22:57:00,29.1,21.6,28.05,SSE,158,0.0,0.0,73,0.00,,---,0.00,VWS V14.01,2013-03-07 03:57:00,
2013-03-06 23:02:00,28.9,21.7,28.05,SSW,202,1.6,2.7,74,0.00,,---,0.00,VWS V14.01,2013-03-07 04:02:00,
2013-03-06 23:08:00,29.1,21.9,28.05,WNW,292,0.0,0.0,74,0.00,,---,0.00,VWS V14.01,2013-03-07 04:08:00,
2013-03-06 23:13:00,29.1,21.9,28.05,ENE,68,2.2,2.2,74,0.00,,---,0.00,VWS V14.01,2013-03-07 04:13:00,
2013-03-06 23:18:00,29.1,21.9,28.05,East,90,0.0,0.0,74,0.00,,---,0.00,VWS V14.01,2013-03-07 04:18:00,
2013-03-06 23:23:00,29.1,22.2,28.05,ENE,68,0.0,0.0,75,0.00,,---,0.00,VWS V14.01,2013-03-07 04:23:00,
2013-03-06 23:28:00,29.1,22.2,28.05,West,270,0.9,4.3,75,0.00,,---,0.00,VWS V14.01,2013-03-07 04:28:00,
2013-03-06 23:33:00,29.1,22.2,28.05,SSW,202,0.0,0.0,75,0.00,,---,0.00,VWS V14.01,2013-03-07 04:33:00,
2013-03-06 23:38:00,28.9,22.0,28.05,SSW,202,0.0,0.0,75,0.00,,---,0.00,VWS V14.01,2013-03-07 04:38:00,
2013-03-06 23:43:00,28.9,22.0,28.05,East,90,1.6,2.2,75,0.00,,---,0.00,VWS V14.01,2013-03-07 04:43:00,
2013-03-06 23:48:00,28.9,22.0,28.05,NE,45,1.1,1.1,75,0.00,,---,0.00,VWS V14.01,2013-03-07 04:48:00,
2013-03-06 23:53:00,28.8,21.9,28.05,SSW,202,1.3,1.3,75,0.00,,---,0.00,VWS V14.01,2013-03-07 04:53:00,
2013-03-06 23:58:00,28.9,22.0,28.05,ENE,68,2.2,2.2,75,0.00,,---,0.00,VWS V14.01,2013-03-07 04:58:00,